Uxbridge, United Kingdom
Current Conditions -  °F | °C
As of 9:50 AM on Saturday 22 Nov 2014 (Local Time) from EGWU Reporting Station
Haze Haze  
Wind Chill: 13°   Ceiling: 900
Heat Index: 13°   Visibility: 1.8mi
Dew Point: 13°   Wind: 6mph
Humidity: 100%   Direction: 180°S
Pressure: 29.91"   Gusts: NA
Location:  51.54°N, 0.48°W
Report Text: EGWU 220950Z 18005KT 3000 BR FEW004 SCT006 BKN009 13/13 Q1013 TEMPO 4000 -RA BKN008
Loading
Personal Weather Stations






























Interactive Weather Map New forecast layout! Learn more

10-Day Weather Forecast

Advertisements
Track Severe Weather on mobile